WetterOnline ( https://www.wetteronline.ch )

Wetter aktuell List

Aktuelles Wetter: List/Sylt (29m)

6-stündlich | Neueste Meldungen
Ortszeit Temperatur Wetter
So, 07.06. 2:00 12.8° C bedeckt
Sa, 06.06. 20:00 11.5° C bedeckt
Sa, 06.06. 14:00 13.7° C wolkig
Sa, 06.06. 8:00 11.4° C wolkig
Sa, 06.06. 2:00 8.6° C wolkig
Fr, 05.06. 20:00 10.6° C Regen
Fr, 05.06. 14:00 12.7° C wolkig
Fr, 05.06. 8:00 9.7° C Sprühregen
Ortszeit Temperatur Wetter
So, 07.06. 6:40 12.6° C leicht bewölkt
So, 07.06. 6:30 12.3° C leicht bewölkt
So, 07.06. 6:20 12.3° C leicht bewölkt
So, 07.06. 6:10 12.2° C wolkenlos
So, 07.06. 6:00 12.2° C fast wolkenlos
So, 07.06. 5:50 12.2° C fast wolkenlos
So, 07.06. 5:30 12.4° C leicht bewölkt
So, 07.06. 5:00 11.8° C bedeckt
So, 07.06. 4:30 11.9° C bewölkt
So, 07.06. 4:00 12.0° C bedeckt
So, 07.06. 3:30 12.2° C bedeckt
Ortszeit Relative Feuchte Sichtweite
So, 07.06. 2:00 68% 45 km
Sa, 06.06. 20:00 78% 29 km
Sa, 06.06. 14:00 56% 35 km
Sa, 06.06. 8:00 68% 50 km
Sa, 06.06. 2:00 79% >70 km
Fr, 05.06. 20:00 89% 7 km
Fr, 05.06. 14:00 55% >70 km
Fr, 05.06. 8:00 72% 55 km
Ortszeit Relative Feuchte Sichtweite
So, 07.06. 6:40 69% -
So, 07.06. 6:30 71% 40 km
So, 07.06. 6:20 71% -
So, 07.06. 6:10 71% -
So, 07.06. 6:00 71% 35 km
So, 07.06. 5:50 71% -
So, 07.06. 5:30 66% 35 km
So, 07.06. 5:00 85% 25 km
So, 07.06. 4:30 85% 24 km
So, 07.06. 4:00 84% 27 km
So, 07.06. 3:30 81% 35 km
Ortszeit Niederschlagsmenge Niederschlagsart
So, 07.06. 2:00 0.1 l/m2 in 6 Std. Regen
Sa, 06.06. 20:00 2 l/m2 in 12 Std. Regen
Sa, 06.06. 14:00 0.1 l/m2 in 6 Std. Regen
Sa, 06.06. 8:00 4 l/m2 in 12 Std. Regen
Sa, 06.06. 2:00 2 l/m2 in 6 Std. Regen
Fr, 05.06. 20:00 4 l/m2 in 12 Std. Regen
Fr, 05.06. 14:00 0.1 l/m2 in 6 Std. Regen
Fr, 05.06. 8:00 1 l/m2 in 12 Std. Regen
Ortszeit Niederschlagsmenge Niederschlagsart
So, 07.06. 6:40 keine Meldung -
So, 07.06. 6:30 0.0 l/m2 in 1 Std. -
So, 07.06. 6:20 keine Meldung -
So, 07.06. 6:10 keine Meldung -
So, 07.06. 6:00 0.0 l/m2 in 1 Std. -
So, 07.06. 5:50 keine Meldung -
So, 07.06. 5:30 0.0 l/m2 in 1 Std. -
So, 07.06. 5:00 0.1 l/m2 in 1 Std. Regen
So, 07.06. 4:30 0.1 l/m2 in 1 Std. Schneeregen
So, 07.06. 4:00 0.0 l/m2 in 1 Std. -
So, 07.06. 3:30 0.0 l/m2 in 1 Std. -
Ortszeit Stärke Spitze Richtung
km/h Bft. km/h Grad Sektor
So, 07.06. 2:00 31 5 70 200° S
Sa, 06.06. 20:00 36 5 65 220° SW
Sa, 06.06. 14:00 44 6 70 220° SW
Sa, 06.06. 8:00 30 5 65 240° SW
Sa, 06.06. 2:00 36 5 65 280° W
Fr, 05.06. 20:00 22 4 61 160° S
Fr, 05.06. 14:00 24 4 48 210° SW
Fr, 05.06. 8:00 31 5 56 270° W
Ortszeit Stärke Spitze Richtung
km/h Bft. km/h Grad Sektor
So, 07.06. 6:40 31 5 - 210° SW
So, 07.06. 6:30 22 4 36 210° SW
So, 07.06. 6:20 22 4 - 210° SW
So, 07.06. 6:10 25 4 - 210° SW
So, 07.06. 6:00 26 4 35 210° SW
So, 07.06. 5:50 26 4 - 210° SW
So, 07.06. 5:30 24 4 35 200° S
So, 07.06. 5:00 15 3 26 140° SO
So, 07.06. 4:30 17 3 26 150° SO
So, 07.06. 4:00 19 3 31 150° SO
So, 07.06. 3:30 20 4 31 150° SO
Ortszeit Untergrenze Bedeckung Gattung
total tief tief mittel hoch
So, 07.06. 2:00 1500 m 8/8 8/8 - - -
Sa, 06.06. 20:00 780 m 8/8 8/8 - - -
Sa, 06.06. 14:00 900 m 6/8 6/8 - - -
Sa, 06.06. 8:00 870 m 4/8 6/8 - - -
Sa, 06.06. 2:00 570 m 7/8 5/8 - - -
Fr, 05.06. 20:00 390 m 8/8 8/8 - - -
Fr, 05.06. 14:00 990 m 7/8 3/8 - - -
Fr, 05.06. 8:00 600 m 7/8 7/8 - - -
Ortszeit Bedeckungsgrad in Achtel und Wolkenuntergrenze
So, 07.06. 6:40 3(810m)
So, 07.06. 6:30 2(780m)
So, 07.06. 6:20 2(780m)
So, 07.06. 6:10 keine Wolken
So, 07.06. 6:00 1(1500m)
So, 07.06. 5:50 1(1500m)
So, 07.06. 5:30 3(1170m) 4(1500m)
So, 07.06. 5:00 4(1110m) 8(1500m)
So, 07.06. 4:30 2(750m) 6(1020m) 7(1500m)
So, 07.06. 4:00 1(600m) 7(1470m) 8(1800m)
So, 07.06. 3:30 2(480m) 7(1410m) 8(1500m)
Ortszeit Luftdruck NN (hPa) Tendenz (hPa in 3 Std.)
So, 07.06. 2:00 1000 + 0,4
Sa, 06.06. 20:00 999 + 1,4
Sa, 06.06. 14:00 996 + 2,3
Sa, 06.06. 8:00 992 + 1,1
Sa, 06.06. 2:00 990 + 2,5
Fr, 05.06. 20:00 988 - 1,9
Fr, 05.06. 14:00 991 - 0,2
Fr, 05.06. 8:00 991 + 0,7
Ortszeit Luftdruck NN (hPa) Tendenz (hPa in 3 Std.)
So, 07.06. 6:40 1000 keine Meldung
So, 07.06. 6:30 1000 + 0,3
So, 07.06. 6:20 1000 keine Meldung
So, 07.06. 6:10 1000 keine Meldung
So, 07.06. 6:00 1000 0,0
So, 07.06. 5:50 1000 keine Meldung
So, 07.06. 5:30 1000 0,0
So, 07.06. 5:00 1000 0,0
So, 07.06. 4:30 1000 - 0,1
So, 07.06. 4:00 1000 0,0
So, 07.06. 3:30 1000 + 0,1
Ortszeit Schneehöhe (cm)
So, 07.06. 2:00 0
Sa, 06.06. 20:00 0
Sa, 06.06. 14:00 0
Sa, 06.06. 8:00 0
Sa, 06.06. 2:00 0
Fr, 05.06. 20:00 0
Fr, 05.06. 14:00 0
Fr, 05.06. 8:00 0
Ortszeit Schneehöhe (cm)
So, 07.06. 6:40 0
So, 07.06. 6:30 0
So, 07.06. 6:20 0
So, 07.06. 6:10 0
So, 07.06. 6:00 0
So, 07.06. 5:50 0
So, 07.06. 5:30 0
So, 07.06. 5:00 0
So, 07.06. 4:30 0
So, 07.06. 4:00 0
So, 07.06. 3:30 0
Link zu dieser Seite / Seite empfehlen

Das Wetter in ...